sensor_id;sensor_type;location;lat;lon;timestamp;P1;durP1;ratioP1;P2;durP2;ratioP2
30096;SDS011;16915;51.466;3.610;2022-11-24T00:01:41;13.40;;;2.78;;
30096;SDS011;16915;51.466;3.610;2022-11-24T00:04:09;15.18;;;3.50;;
30096;SDS011;16915;51.466;3.610;2022-11-24T00:06:35;21.30;;;3.75;;
30096;SDS011;16915;51.466;3.610;2022-11-24T00:09:02;24.95;;;2.88;;
30096;SDS011;16915;51.466;3.610;2022-11-24T00:11:30;11.50;;;2.75;;
30096;SDS011;16915;51.466;3.610;2022-11-24T00:13:58;21.05;;;3.22;;
30096;SDS011;16915;51.466;3.610;2022-11-24T00:16:25;12.30;;;2.78;;
30096;SDS011;16915;51.466;3.610;2022-11-24T00:18:56;9.55;;;2.03;;
30096;SDS011;16915;51.466;3.610;2022-11-24T00:21:23;13.85;;;2.38;;
30096;SDS011;16915;51.466;3.610;2022-11-24T00:23:50;15.52;;;3.15;;
30096;SDS011;16915;51.466;3.610;2022-11-24T00:26:20;13.15;;;2.17;;
30096;SDS011;16915;51.466;3.610;2022-11-24T00:28:52;18.77;;;2.40;;
30096;SDS011;16915;51.466;3.610;2022-11-24T00:31:23;14.90;;;2.38;;
30096;SDS011;16915;51.466;3.610;2022-11-24T00:33:51;16.08;;;2.15;;
30096;SDS011;16915;51.466;3.610;2022-11-24T00:36:19;13.80;;;2.38;;
30096;SDS011;16915;51.466;3.610;2022-11-24T00:38:46;16.45;;;2.20;;
30096;SDS011;16915;51.466;3.610;2022-11-24T00:41:12;13.43;;;1.95;;
30096;SDS011;16915;51.466;3.610;2022-11-24T00:43:37;13.07;;;2.22;;
30096;SDS011;16915;51.466;3.610;2022-11-24T00:46:03;17.95;;;2.17;;
30096;SDS011;16915;51.466;3.610;2022-11-24T00:48:29;15.75;;;2.17;;
30096;SDS011;16915;51.466;3.610;2022-11-24T00:51:03;16.48;;;2.00;;
30096;SDS011;16915;51.466;3.610;2022-11-24T00:53:30;13.32;;;2.30;;
30096;SDS011;16915;51.466;3.610;2022-11-24T00:55:56;11.68;;;1.42;;
30096;SDS011;16915;51.466;3.610;2022-11-24T00:58:22;11.43;;;1.95;;
30096;SDS011;16915;51.466;3.610;2022-11-24T01:00:48;11.55;;;1.88;;
30096;SDS011;16915;51.466;3.610;2022-11-24T01:03:15;11.10;;;1.20;;
30096;SDS011;16915;51.466;3.610;2022-11-24T01:05:41;7.47;;;1.20;;
30096;SDS011;16915;51.466;3.610;2022-11-24T01:08:07;16.83;;;1.60;;
30096;SDS011;16915;51.466;3.610;2022-11-24T01:10:33;5.93;;;1.50;;
30096;SDS011;16915;51.466;3.610;2022-11-24T01:12:59;9.32;;;1.55;;
30096;SDS011;16915;51.466;3.610;2022-11-24T01:15:25;12.07;;;1.80;;
30096;SDS011;16915;51.466;3.610;2022-11-24T01:17:51;12.88;;;2.00;;
30096;SDS011;16915;51.466;3.610;2022-11-24T01:20:17;11.95;;;1.65;;
30096;SDS011;16915;51.466;3.610;2022-11-24T01:22:43;15.50;;;1.70;;
30096;SDS011;16915;51.466;3.610;2022-11-24T01:25:11;19.00;;;1.48;;
30096;SDS011;16915;51.466;3.610;2022-11-24T01:27:37;13.02;;;1.70;;
30096;SDS011;16915;51.466;3.610;2022-11-24T01:30:03;15.57;;;1.80;;
30096;SDS011;16915;51.466;3.610;2022-11-24T01:32:31;13.70;;;1.90;;
30096;SDS011;16915;51.466;3.610;2022-11-24T01:34:58;16.17;;;1.77;;
30096;SDS011;16915;51.466;3.610;2022-11-24T01:37:24;17.52;;;2.10;;
30096;SDS011;16915;51.466;3.610;2022-11-24T01:39:49;17.67;;;2.15;;
30096;SDS011;16915;51.466;3.610;2022-11-24T01:42:15;14.98;;;1.70;;
30096;SDS011;16915;51.466;3.610;2022-11-24T01:44:41;12.13;;;2.15;;
30096;SDS011;16915;51.466;3.610;2022-11-24T01:50:01;18.60;;;3.28;;
30096;SDS011;16915;51.466;3.610;2022-11-24T01:52:31;19.35;;;2.92;;
30096;SDS011;16915;51.466;3.610;2022-11-24T01:55:05;16.58;;;1.65;;
30096;SDS011;16915;51.466;3.610;2022-11-24T01:57:35;21.67;;;2.25;;
30096;SDS011;16915;51.466;3.610;2022-11-24T02:00:10;16.33;;;2.05;;
30096;SDS011;16915;51.466;3.610;2022-11-24T02:02:37;16.65;;;2.15;;
30096;SDS011;16915;51.466;3.610;2022-11-24T02:07:52;12.40;;;2.15;;
30096;SDS011;16915;51.466;3.610;2022-11-24T02:10:19;17.27;;;2.17;;
30096;SDS011;16915;51.466;3.610;2022-11-24T02:12:47;11.90;;;2.35;;
30096;SDS011;16915;51.466;3.610;2022-11-24T02:15:16;20.15;;;2.45;;
30096;SDS011;16915;51.466;3.610;2022-11-24T02:17:43;18.40;;;2.30;;
30096;SDS011;16915;51.466;3.610;2022-11-24T02:20:10;15.35;;;2.72;;
30096;SDS011;16915;51.466;3.610;2022-11-24T02:28:05;18.73;;;1.92;;
30096;SDS011;16915;51.466;3.610;2022-11-24T02:30:34;14.52;;;2.10;;
30096;SDS011;16915;51.466;3.610;2022-11-24T02:33:00;9.82;;;1.30;;
30096;SDS011;16915;51.466;3.610;2022-11-24T02:35:26;10.13;;;1.45;;
30096;SDS011;16915;51.466;3.610;2022-11-24T02:37:52;16.48;;;1.90;;
30096;SDS011;16915;51.466;3.610;2022-11-24T02:40:22;8.65;;;1.67;;
30096;SDS011;16915;51.466;3.610;2022-11-24T02:42:51;10.88;;;1.88;;
30096;SDS011;16915;51.466;3.610;2022-11-24T02:47:48;9.65;;;1.17;;
30096;SDS011;16915;51.466;3.610;2022-11-24T02:50:14;4.13;;;0.88;;
30096;SDS011;16915;51.466;3.610;2022-11-24T02:52:39;8.80;;;0.85;;
30096;SDS011;16915;51.466;3.610;2022-11-24T02:55:05;10.45;;;1.13;;
30096;SDS011;16915;51.466;3.610;2022-11-24T02:57:31;13.73;;;1.10;;
30096;SDS011;16915;51.466;3.610;2022-11-24T02:59:57;6.68;;;1.00;;
30096;SDS011;16915;51.466;3.610;2022-11-24T03:02:22;8.15;;;0.75;;
30096;SDS011;16915;51.466;3.610;2022-11-24T03:04:48;5.38;;;1.02;;
30096;SDS011;16915;51.466;3.610;2022-11-24T03:07:14;9.57;;;1.15;;
30096;SDS011;16915;51.466;3.610;2022-11-24T03:09:39;11.68;;;1.42;;
30096;SDS011;16915;51.466;3.610;2022-11-24T03:12:05;5.53;;;0.80;;
30096;SDS011;16915;51.466;3.610;2022-11-24T03:14:31;7.63;;;0.85;;
30096;SDS011;16915;51.466;3.610;2022-11-24T03:16:56;6.40;;;1.33;;
30096;SDS011;16915;51.466;3.610;2022-11-24T03:19:22;7.65;;;1.20;;
30096;SDS011;16915;51.466;3.610;2022-11-24T03:21:48;4.97;;;0.77;;
30096;SDS011;16915;51.466;3.610;2022-11-24T03:24:13;3.72;;;0.73;;
30096;SDS011;16915;51.466;3.610;2022-11-24T03:26:39;6.63;;;0.70;;
30096;SDS011;16915;51.466;3.610;2022-11-24T03:29:06;6.82;;;0.90;;
30096;SDS011;16915;51.466;3.610;2022-11-24T03:31:32;7.53;;;0.63;;
30096;SDS011;16915;51.466;3.610;2022-11-24T03:33:57;8.27;;;1.17;;
30096;SDS011;16915;51.466;3.610;2022-11-24T03:36:23;3.90;;;0.77;;
30096;SDS011;16915;51.466;3.610;2022-11-24T03:38:49;6.22;;;0.85;;
30096;SDS011;16915;51.466;3.610;2022-11-24T03:41:14;2.88;;;0.40;;
30096;SDS011;16915;51.466;3.610;2022-11-24T03:43:40;7.88;;;0.80;;
30096;SDS011;16915;51.466;3.610;2022-11-24T03:46:06;5.75;;;0.80;;
30096;SDS011;16915;51.466;3.610;2022-11-24T03:48:31;6.80;;;0.90;;
30096;SDS011;16915;51.466;3.610;2022-11-24T03:50:58;2.17;;;0.57;;
30096;SDS011;16915;51.466;3.610;2022-11-24T03:53:25;8.77;;;0.80;;
30096;SDS011;16915;51.466;3.610;2022-11-24T03:55:52;7.78;;;0.40;;
30096;SDS011;16915;51.466;3.610;2022-11-24T03:58:18;4.72;;;0.50;;
30096;SDS011;16915;51.466;3.610;2022-11-24T04:00:44;3.72;;;0.50;;
30096;SDS011;16915;51.466;3.610;2022-11-24T04:03:12;6.78;;;0.55;;
30096;SDS011;16915;51.466;3.610;2022-11-24T04:05:37;5.80;;;0.70;;
30096;SDS011;16915;51.466;3.610;2022-11-24T04:08:03;6.55;;;0.70;;
30096;SDS011;16915;51.466;3.610;2022-11-24T04:10:33;6.05;;;0.70;;
30096;SDS011;16915;51.466;3.610;2022-11-24T04:13:01;5.95;;;0.60;;
30096;SDS011;16915;51.466;3.610;2022-11-24T04:15:28;5.78;;;0.70;;
30096;SDS011;16915;51.466;3.610;2022-11-24T04:17:54;6.57;;;0.68;;
30096;SDS011;16915;51.466;3.610;2022-11-24T04:20:20;7.90;;;0.77;;
30096;SDS011;16915;51.466;3.610;2022-11-24T04:22:46;2.65;;;0.52;;
30096;SDS011;16915;51.466;3.610;2022-11-24T04:25:14;3.55;;;0.68;;
30096;SDS011;16915;51.466;3.610;2022-11-24T04:27:41;4.97;;;0.70;;
30096;SDS011;16915;51.466;3.610;2022-11-24T04:30:07;8.13;;;0.80;;
30096;SDS011;16915;51.466;3.610;2022-11-24T04:32:34;4.07;;;0.82;;
30096;SDS011;16915;51.466;3.610;2022-11-24T04:35:00;6.53;;;0.85;;
30096;SDS011;16915;51.466;3.610;2022-11-24T04:37:25;6.97;;;0.80;;
30096;SDS011;16915;51.466;3.610;2022-11-24T04:39:52;11.27;;;1.02;;
30096;SDS011;16915;51.466;3.610;2022-11-24T04:42:19;9.95;;;1.13;;
30096;SDS011;16915;51.466;3.610;2022-11-24T04:44:45;8.02;;;1.02;;
30096;SDS011;16915;51.466;3.610;2022-11-24T04:47:14;7.68;;;1.13;;
30096;SDS011;16915;51.466;3.610;2022-11-24T04:49:45;9.07;;;1.10;;
30096;SDS011;16915;51.466;3.610;2022-11-24T04:52:11;7.45;;;0.60;;
30096;SDS011;16915;51.466;3.610;2022-11-24T04:54:36;5.75;;;0.80;;
30096;SDS011;16915;51.466;3.610;2022-11-24T04:57:02;4.30;;;0.40;;
30096;SDS011;16915;51.466;3.610;2022-11-24T04:59:28;10.52;;;0.90;;
30096;SDS011;16915;51.466;3.610;2022-11-24T05:01:53;6.57;;;1.23;;
30096;SDS011;16915;51.466;3.610;2022-11-24T05:04:19;9.38;;;0.73;;
30096;SDS011;16915;51.466;3.610;2022-11-24T05:06:45;9.95;;;1.08;;
30096;SDS011;16915;51.466;3.610;2022-11-24T05:09:14;6.18;;;1.00;;
30096;SDS011;16915;51.466;3.610;2022-11-24T05:11:41;9.32;;;0.90;;
30096;SDS011;16915;51.466;3.610;2022-11-24T05:14:07;10.25;;;0.90;;
30096;SDS011;16915;51.466;3.610;2022-11-24T05:16:33;11.05;;;1.17;;
30096;SDS011;16915;51.466;3.610;2022-11-24T05:18:58;7.82;;;0.95;;
30096;SDS011;16915;51.466;3.610;2022-11-24T05:21:24;4.28;;;0.90;;
30096;SDS011;16915;51.466;3.610;2022-11-24T05:23:49;8.63;;;1.00;;
30096;SDS011;16915;51.466;3.610;2022-11-24T05:26:15;10.43;;;1.35;;
30096;SDS011;16915;51.466;3.610;2022-11-24T05:28:41;12.75;;;1.35;;
30096;SDS011;16915;51.466;3.610;2022-11-24T05:31:06;6.18;;;1.10;;
30096;SDS011;16915;51.466;3.610;2022-11-24T05:33:32;10.75;;;0.85;;
30096;SDS011;16915;51.466;3.610;2022-11-24T05:36:02;7.30;;;1.13;;
30096;SDS011;16915;51.466;3.610;2022-11-24T05:38:29;9.05;;;1.38;;
30096;SDS011;16915;51.466;3.610;2022-11-24T05:40:59;11.90;;;1.17;;
30096;SDS011;16915;51.466;3.610;2022-11-24T05:43:29;10.88;;;1.10;;
30096;SDS011;16915;51.466;3.610;2022-11-24T05:45:58;15.65;;;1.20;;
30096;SDS011;16915;51.466;3.610;2022-11-24T05:48:24;16.10;;;1.52;;
30096;SDS011;16915;51.466;3.610;2022-11-24T05:50:54;8.30;;;1.40;;
30096;SDS011;16915;51.466;3.610;2022-11-24T05:53:20;13.95;;;1.65;;
30096;SDS011;16915;51.466;3.610;2022-11-24T05:55:45;11.07;;;1.63;;
30096;SDS011;16915;51.466;3.610;2022-11-24T05:58:11;13.55;;;1.40;;
30096;SDS011;16915;51.466;3.610;2022-11-24T06:00:36;10.15;;;1.38;;
30096;SDS011;16915;51.466;3.610;2022-11-24T06:03:02;15.10;;;1.70;;
30096;SDS011;16915;51.466;3.610;2022-11-24T06:05:28;14.60;;;1.60;;
30096;SDS011;16915;51.466;3.610;2022-11-24T06:07:54;16.23;;;1.20;;
30096;SDS011;16915;51.466;3.610;2022-11-24T06:10:20;18.25;;;1.65;;
30096;SDS011;16915;51.466;3.610;2022-11-24T06:12:47;13.18;;;1.30;;
30096;SDS011;16915;51.466;3.610;2022-11-24T06:15:14;10.48;;;1.23;;
30096;SDS011;16915;51.466;3.610;2022-11-24T06:17:40;17.60;;;2.13;;
30096;SDS011;16915;51.466;3.610;2022-11-24T06:20:06;10.55;;;1.35;;
30096;SDS011;16915;51.466;3.610;2022-11-24T06:22:33;16.63;;;1.88;;
30096;SDS011;16915;51.466;3.610;2022-11-24T06:24:59;14.52;;;1.17;;
30096;SDS011;16915;51.466;3.610;2022-11-24T06:27:26;10.52;;;1.33;;
30096;SDS011;16915;51.466;3.610;2022-11-24T06:29:52;13.35;;;1.85;;
30096;SDS011;16915;51.466;3.610;2022-11-24T06:32:17;23.35;;;1.55;;
30096;SDS011;16915;51.466;3.610;2022-11-24T06:34:43;15.73;;;1.30;;
30096;SDS011;16915;51.466;3.610;2022-11-24T06:37:09;14.75;;;3.10;;
30096;SDS011;16915;51.466;3.610;2022-11-24T06:39:34;12.38;;;1.10;;
30096;SDS011;16915;51.466;3.610;2022-11-24T06:42:00;7.47;;;1.30;;
30096;SDS011;16915;51.466;3.610;2022-11-24T06:44:27;10.07;;;1.30;;
30096;SDS011;16915;51.466;3.610;2022-11-24T06:46:52;17.75;;;1.27;;
30096;SDS011;16915;51.466;3.610;2022-11-24T06:49:18;7.20;;;1.00;;
30096;SDS011;16915;51.466;3.610;2022-11-24T06:51:44;12.15;;;1.40;;
30096;SDS011;16915;51.466;3.610;2022-11-24T06:54:12;11.65;;;1.75;;
30096;SDS011;16915;51.466;3.610;2022-11-24T06:56:39;10.98;;;1.45;;
30096;SDS011;16915;51.466;3.610;2022-11-24T06:59:05;9.70;;;1.80;;
30096;SDS011;16915;51.466;3.610;2022-11-24T07:01:30;18.63;;;1.65;;
30096;SDS011;16915;51.466;3.610;2022-11-24T07:03:56;11.38;;;1.23;;
30096;SDS011;16915;51.466;3.610;2022-11-24T07:06:23;15.15;;;1.63;;
30096;SDS011;16915;51.466;3.610;2022-11-24T07:08:49;20.90;;;2.17;;
30096;SDS011;16915;51.466;3.610;2022-11-24T07:11:17;19.25;;;1.95;;
30096;SDS011;16915;51.466;3.610;2022-11-24T07:13:44;17.27;;;1.88;;
30096;SDS011;16915;51.466;3.610;2022-11-24T07:18:37;17.08;;;1.65;;
30096;SDS011;16915;51.466;3.610;2022-11-24T07:21:03;17.38;;;1.88;;
30096;SDS011;16915;51.466;3.610;2022-11-24T07:23:29;8.10;;;1.50;;
30096;SDS011;16915;51.466;3.610;2022-11-24T07:25:54;11.70;;;1.38;;
30096;SDS011;16915;51.466;3.610;2022-11-24T07:28:20;13.68;;;2.17;;
30096;SDS011;16915;51.466;3.610;2022-11-24T07:30:46;22.60;;;2.50;;
30096;SDS011;16915;51.466;3.610;2022-11-24T07:33:11;17.40;;;1.90;;
30096;SDS011;16915;51.466;3.610;2022-11-24T07:35:37;7.32;;;1.92;;
30096;SDS011;16915;51.466;3.610;2022-11-24T07:38:03;15.60;;;1.63;;
30096;SDS011;16915;51.466;3.610;2022-11-24T07:40:28;15.45;;;1.60;;
30096;SDS011;16915;51.466;3.610;2022-11-24T07:42:54;10.13;;;1.80;;
30096;SDS011;16915;51.466;3.610;2022-11-24T07:45:19;17.88;;;2.25;;
30096;SDS011;16915;51.466;3.610;2022-11-24T07:47:45;10.98;;;1.70;;
30096;SDS011;16915;51.466;3.610;2022-11-24T07:50:11;18.27;;;2.10;;
30096;SDS011;16915;51.466;3.610;2022-11-24T07:52:37;15.27;;;1.83;;
30096;SDS011;16915;51.466;3.610;2022-11-24T07:55:03;15.32;;;2.47;;
30096;SDS011;16915;51.466;3.610;2022-11-24T07:57:29;10.95;;;1.70;;
30096;SDS011;16915;51.466;3.610;2022-11-24T07:59:55;12.40;;;2.03;;
30096;SDS011;16915;51.466;3.610;2022-11-24T08:02:20;13.35;;;1.70;;
30096;SDS011;16915;51.466;3.610;2022-11-24T08:04:46;16.70;;;2.22;;
30096;SDS011;16915;51.466;3.610;2022-11-24T08:07:12;14.93;;;2.30;;
30096;SDS011;16915;51.466;3.610;2022-11-24T08:09:37;23.42;;;2.75;;
30096;SDS011;16915;51.466;3.610;2022-11-24T08:12:03;16.75;;;2.15;;
30096;SDS011;16915;51.466;3.610;2022-11-24T08:14:29;24.48;;;2.20;;
30096;SDS011;16915;51.466;3.610;2022-11-24T08:16:54;16.67;;;2.50;;
30096;SDS011;16915;51.466;3.610;2022-11-24T08:19:21;20.05;;;2.60;;
30096;SDS011;16915;51.466;3.610;2022-11-24T08:21:47;17.23;;;1.90;;
30096;SDS011;16915;51.466;3.610;2022-11-24T08:24:12;25.88;;;2.63;;
30096;SDS011;16915;51.466;3.610;2022-11-24T08:26:39;15.90;;;2.15;;
30096;SDS011;16915;51.466;3.610;2022-11-24T08:29:05;11.43;;;1.75;;
30096;SDS011;16915;51.466;3.610;2022-11-24T08:31:31;14.30;;;2.15;;
30096;SDS011;16915;51.466;3.610;2022-11-24T08:33:59;21.50;;;2.30;;
30096;SDS011;16915;51.466;3.610;2022-11-24T08:36:26;14.52;;;2.28;;
30096;SDS011;16915;51.466;3.610;2022-11-24T08:38:55;16.10;;;2.10;;
30096;SDS011;16915;51.466;3.610;2022-11-24T08:41:21;12.07;;;2.60;;
30096;SDS011;16915;51.466;3.610;2022-11-24T08:43:48;10.82;;;2.50;;
30096;SDS011;16915;51.466;3.610;2022-11-24T08:46:15;12.65;;;3.20;;
30096;SDS011;16915;51.466;3.610;2022-11-24T08:48:42;24.23;;;3.38;;
30096;SDS011;16915;51.466;3.610;2022-11-24T08:51:16;21.63;;;3.03;;
30096;SDS011;16915;51.466;3.610;2022-11-24T08:53:45;14.77;;;2.40;;
30096;SDS011;16915;51.466;3.610;2022-11-24T08:56:11;14.48;;;2.88;;
30096;SDS011;16915;51.466;3.610;2022-11-24T08:58:37;10.73;;;2.30;;
30096;SDS011;16915;51.466;3.610;2022-11-24T09:01:07;11.38;;;2.50;;
30096;SDS011;16915;51.466;3.610;2022-11-24T09:03:38;16.38;;;3.30;;
30096;SDS011;16915;51.466;3.610;2022-11-24T09:06:04;17.85;;;2.83;;
30096;SDS011;16915;51.466;3.610;2022-11-24T09:08:31;16.13;;;3.60;;
30096;SDS011;16915;51.466;3.610;2022-11-24T09:11:04;11.32;;;3.03;;
30096;SDS011;16915;51.466;3.610;2022-11-24T09:13:32;17.77;;;3.53;;
30096;SDS011;16915;51.466;3.610;2022-11-24T09:16:01;24.17;;;4.03;;
30096;SDS011;16915;51.466;3.610;2022-11-24T09:18:31;22.40;;;4.00;;
30096;SDS011;16915;51.466;3.610;2022-11-24T09:21:11;19.92;;;4.43;;
30096;SDS011;16915;51.466;3.610;2022-11-24T09:23:38;25.08;;;4.18;;
30096;SDS011;16915;51.466;3.610;2022-11-24T09:26:06;13.20;;;3.97;;
30096;SDS011;16915;51.466;3.610;2022-11-24T09:28:33;16.58;;;4.35;;
30096;SDS011;16915;51.466;3.610;2022-11-24T09:31:03;20.38;;;4.35;;
30096;SDS011;16915;51.466;3.610;2022-11-24T09:35:56;17.98;;;3.78;;
30096;SDS011;16915;51.466;3.610;2022-11-24T09:38:22;15.98;;;3.58;;
30096;SDS011;16915;51.466;3.610;2022-11-24T09:40:48;16.77;;;3.28;;
30096;SDS011;16915;51.466;3.610;2022-11-24T09:46:19;21.42;;;4.30;;
30096;SDS011;16915;51.466;3.610;2022-11-24T09:48:51;13.63;;;3.50;;
30096;SDS011;16915;51.466;3.610;2022-11-24T09:51:21;12.40;;;3.10;;
30096;SDS011;16915;51.466;3.610;2022-11-24T09:53:54;18.40;;;3.13;;
30096;SDS011;16915;51.466;3.610;2022-11-24T09:56:27;23.80;;;3.63;;
30096;SDS011;16915;51.466;3.610;2022-11-24T09:59:13;19.10;;;3.20;;
30096;SDS011;16915;51.466;3.610;2022-11-24T10:01:42;16.60;;;2.97;;
30096;SDS011;16915;51.466;3.610;2022-11-24T10:04:20;17.60;;;3.22;;
30096;SDS011;16915;51.466;3.610;2022-11-24T10:06:55;12.13;;;2.80;;
30096;SDS011;16915;51.466;3.610;2022-11-24T10:12:08;16.10;;;3.50;;
30096;SDS011;16915;51.466;3.610;2022-11-24T10:25:24;16.48;;;3.40;;
30096;SDS011;16915;51.466;3.610;2022-11-24T10:27:55;19.95;;;3.08;;
30096;SDS011;16915;51.466;3.610;2022-11-24T10:30:27;13.63;;;2.85;;
30096;SDS011;16915;51.466;3.610;2022-11-24T10:35:43;9.70;;;3.03;;
30096;SDS011;16915;51.466;3.610;2022-11-24T10:38:36;11.90;;;2.70;;
30096;SDS011;16915;51.466;3.610;2022-11-24T10:41:11;15.52;;;3.53;;
30096;SDS011;16915;51.466;3.610;2022-11-24T10:43:42;11.90;;;3.30;;
30096;SDS011;16915;51.466;3.610;2022-11-24T10:48:59;16.42;;;3.50;;
30096;SDS011;16915;51.466;3.610;2022-11-24T10:54:14;25.58;;;3.47;;
30096;SDS011;16915;51.466;3.610;2022-11-24T10:56:45;16.45;;;3.80;;
30096;SDS011;16915;51.466;3.610;2022-11-24T10:59:28;13.63;;;3.10;;
30096;SDS011;16915;51.466;3.610;2022-11-24T11:02:01;12.18;;;2.35;;
30096;SDS011;16915;51.466;3.610;2022-11-24T11:04:32;15.07;;;2.80;;
30096;SDS011;16915;51.466;3.610;2022-11-24T11:07:09;14.13;;;2.70;;
30096;SDS011;16915;51.466;3.610;2022-11-24T11:09:42;12.73;;;2.70;;
30096;SDS011;16915;51.466;3.610;2022-11-24T11:12:09;17.13;;;3.08;;
30096;SDS011;16915;51.466;3.610;2022-11-24T11:14:44;10.95;;;2.40;;
30096;SDS011;16915;51.466;3.610;2022-11-24T11:20:03;12.13;;;2.60;;
30096;SDS011;16915;51.466;3.610;2022-11-24T11:22:49;10.00;;;2.45;;
30096;SDS011;16915;51.466;3.610;2022-11-24T11:25:17;11.05;;;2.30;;
30096;SDS011;16915;51.466;3.610;2022-11-24T11:27:45;10.05;;;2.38;;
30096;SDS011;16915;51.466;3.610;2022-11-24T11:32:56;9.63;;;2.67;;
30096;SDS011;16915;51.466;3.610;2022-11-24T11:35:25;15.43;;;2.90;;
30096;SDS011;16915;51.466;3.610;2022-11-24T11:37:53;9.15;;;2.63;;
30096;SDS011;16915;51.466;3.610;2022-11-24T11:40:26;11.15;;;2.58;;
30096;SDS011;16915;51.466;3.610;2022-11-24T11:45:35;11.60;;;2.45;;
30096;SDS011;16915;51.466;3.610;2022-11-24T11:56:24;14.75;;;2.42;;
30096;SDS011;16915;51.466;3.610;2022-11-24T12:12:34;10.45;;;2.03;;
30096;SDS011;16915;51.466;3.610;2022-11-24T12:15:22;15.25;;;2.00;;
30096;SDS011;16915;51.466;3.610;2022-11-24T12:20:36;13.43;;;2.60;;
30096;SDS011;16915;51.466;3.610;2022-11-24T12:23:30;11.48;;;2.03;;
30096;SDS011;16915;51.466;3.610;2022-11-24T12:35:09;20.10;;;2.95;;
30096;SDS011;16915;51.466;3.610;2022-11-24T12:43:49;16.92;;;2.75;;
30096;SDS011;16915;51.466;3.610;2022-11-24T12:49:20;15.38;;;3.60;;
30096;SDS011;16915;51.466;3.610;2022-11-24T12:52:11;14.32;;;3.85;;
30096;SDS011;16915;51.466;3.610;2022-11-24T12:54:49;15.00;;;3.45;;
30096;SDS011;16915;51.466;3.610;2022-11-24T12:57:20;18.80;;;3.80;;
30096;SDS011;16915;51.466;3.610;2022-11-24T12:59:56;21.98;;;4.65;;
30096;SDS011;16915;51.466;3.610;2022-11-24T13:08:00;24.85;;;2.97;;
30096;SDS011;16915;51.466;3.610;2022-11-24T13:13:03;16.75;;;2.53;;
30096;SDS011;16915;51.466;3.610;2022-11-24T13:15:31;10.43;;;2.03;;
30096;SDS011;16915;51.466;3.610;2022-11-24T13:23:56;16.90;;;2.55;;
30096;SDS011;16915;51.466;3.610;2022-11-24T13:26:29;17.77;;;2.42;;
30096;SDS011;16915;51.466;3.610;2022-11-24T13:31:51;15.52;;;2.20;;
30096;SDS011;16915;51.466;3.610;2022-11-24T13:53:26;12.98;;;2.88;;
30096;SDS011;16915;51.466;3.610;2022-11-24T13:58:43;13.70;;;1.90;;
30096;SDS011;16915;51.466;3.610;2022-11-24T14:04:00;13.65;;;4.60;;
30096;SDS011;16915;51.466;3.610;2022-11-24T14:06:31;16.88;;;3.47;;
30096;SDS011;16915;51.466;3.610;2022-11-24T14:09:06;18.42;;;2.95;;
30096;SDS011;16915;51.466;3.610;2022-11-24T14:11:58;16.63;;;2.17;;
30096;SDS011;16915;51.466;3.610;2022-11-24T14:14:25;11.68;;;2.22;;
30096;SDS011;16915;51.466;3.610;2022-11-24T14:17:11;16.23;;;2.33;;
30096;SDS011;16915;51.466;3.610;2022-11-24T14:19:44;14.90;;;2.35;;
30096;SDS011;16915;51.466;3.610;2022-11-24T14:22:30;10.00;;;1.98;;
30096;SDS011;16915;51.466;3.610;2022-11-24T14:25:01;16.02;;;2.08;;
30096;SDS011;16915;51.466;3.610;2022-11-24T14:27:28;15.02;;;2.03;;
30096;SDS011;16915;51.466;3.610;2022-11-24T14:30:03;11.52;;;1.60;;
30096;SDS011;16915;51.466;3.610;2022-11-24T14:32:30;20.55;;;2.08;;
30096;SDS011;16915;51.466;3.610;2022-11-24T14:34:55;11.73;;;2.38;;
30096;SDS011;16915;51.466;3.610;2022-11-24T14:37:21;14.77;;;1.88;;
30096;SDS011;16915;51.466;3.610;2022-11-24T14:39:47;11.52;;;1.90;;
30096;SDS011;16915;51.466;3.610;2022-11-24T14:42:22;17.27;;;2.45;;
30096;SDS011;16915;51.466;3.610;2022-11-24T14:44:52;14.32;;;1.98;;
30096;SDS011;16915;51.466;3.610;2022-11-24T14:49:52;18.83;;;1.95;;
30096;SDS011;16915;51.466;3.610;2022-11-24T14:52:19;14.40;;;2.10;;
30096;SDS011;16915;51.466;3.610;2022-11-24T14:54:47;19.27;;;2.50;;
30096;SDS011;16915;51.466;3.610;2022-11-24T14:57:35;14.70;;;2.75;;
30096;SDS011;16915;51.466;3.610;2022-11-24T15:05:48;16.73;;;3.22;;
30096;SDS011;16915;51.466;3.610;2022-11-24T15:08:26;20.63;;;3.53;;
30096;SDS011;16915;51.466;3.610;2022-11-24T15:11:06;14.57;;;2.50;;
30096;SDS011;16915;51.466;3.610;2022-11-24T15:13:48;16.92;;;2.42;;
30096;SDS011;16915;51.466;3.610;2022-11-24T15:16:17;15.00;;;2.03;;
30096;SDS011;16915;51.466;3.610;2022-11-24T15:18:46;22.25;;;2.78;;
30096;SDS011;16915;51.466;3.610;2022-11-24T15:21:12;20.92;;;2.78;;
30096;SDS011;16915;51.466;3.610;2022-11-24T15:23:39;25.33;;;2.45;;
30096;SDS011;16915;51.466;3.610;2022-11-24T15:28:32;22.25;;;3.58;;
30096;SDS011;16915;51.466;3.610;2022-11-24T15:30:59;15.45;;;2.08;;
30096;SDS011;16915;51.466;3.610;2022-11-24T15:33:34;19.05;;;2.67;;
30096;SDS011;16915;51.466;3.610;2022-11-24T15:36:00;17.58;;;2.67;;
30096;SDS011;16915;51.466;3.610;2022-11-24T15:38:26;13.65;;;1.88;;
30096;SDS011;16915;51.466;3.610;2022-11-24T15:40:52;12.75;;;2.25;;
30096;SDS011;16915;51.466;3.610;2022-11-24T15:45:54;23.25;;;2.80;;
30096;SDS011;16915;51.466;3.610;2022-11-24T15:48:20;14.63;;;2.80;;
30096;SDS011;16915;51.466;3.610;2022-11-24T15:50:46;23.50;;;2.75;;
30096;SDS011;16915;51.466;3.610;2022-11-24T15:53:27;15.57;;;2.35;;
30096;SDS011;16915;51.466;3.610;2022-11-24T15:55:56;9.48;;;2.33;;
30096;SDS011;16915;51.466;3.610;2022-11-24T15:58:24;11.80;;;2.58;;
30096;SDS011;16915;51.466;3.610;2022-11-24T16:00:49;17.23;;;2.58;;
30096;SDS011;16915;51.466;3.610;2022-11-24T16:03:17;10.63;;;1.95;;
30096;SDS011;16915;51.466;3.610;2022-11-24T16:05:43;18.98;;;2.42;;
30096;SDS011;16915;51.466;3.610;2022-11-24T16:08:13;14.05;;;2.78;;
30096;SDS011;16915;51.466;3.610;2022-11-24T16:10:40;20.15;;;2.92;;
30096;SDS011;16915;51.466;3.610;2022-11-24T16:13:06;14.05;;;2.63;;
30096;SDS011;16915;51.466;3.610;2022-11-24T16:15:33;14.50;;;2.28;;
30096;SDS011;16915;51.466;3.610;2022-11-24T16:17:58;16.27;;;3.13;;
30096;SDS011;16915;51.466;3.610;2022-11-24T16:20:24;16.23;;;2.85;;
30096;SDS011;16915;51.466;3.610;2022-11-24T16:22:49;15.43;;;2.33;;
30096;SDS011;16915;51.466;3.610;2022-11-24T16:25:15;10.23;;;2.17;;
30096;SDS011;16915;51.466;3.610;2022-11-24T16:27:41;8.55;;;2.28;;
30096;SDS011;16915;51.466;3.610;2022-11-24T16:30:08;13.27;;;2.75;;
30096;SDS011;16915;51.466;3.610;2022-11-24T16:32:36;23.17;;;3.13;;
30096;SDS011;16915;51.466;3.610;2022-11-24T16:35:01;15.18;;;2.40;;
30096;SDS011;16915;51.466;3.610;2022-11-24T16:37:28;16.00;;;3.05;;
30096;SDS011;16915;51.466;3.610;2022-11-24T16:39:53;18.17;;;3.55;;
30096;SDS011;16915;51.466;3.610;2022-11-24T16:42:19;15.73;;;2.38;;
30096;SDS011;16915;51.466;3.610;2022-11-24T16:44:45;17.05;;;2.88;;
30096;SDS011;16915;51.466;3.610;2022-11-24T16:47:10;14.85;;;2.50;;
30096;SDS011;16915;51.466;3.610;2022-11-24T16:49:37;17.80;;;2.95;;
30096;SDS011;16915;51.466;3.610;2022-11-24T16:52:03;21.48;;;2.65;;
30096;SDS011;16915;51.466;3.610;2022-11-24T16:54:29;12.75;;;2.67;;
30096;SDS011;16915;51.466;3.610;2022-11-24T16:56:55;24.73;;;3.22;;
30096;SDS011;16915;51.466;3.610;2022-11-24T16:59:21;17.80;;;2.53;;
30096;SDS011;16915;51.466;3.610;2022-11-24T17:01:46;15.68;;;2.20;;
30096;SDS011;16915;51.466;3.610;2022-11-24T17:04:14;13.68;;;2.53;;
30096;SDS011;16915;51.466;3.610;2022-11-24T17:06:40;19.20;;;2.65;;
30096;SDS011;16915;51.466;3.610;2022-11-24T17:09:06;18.75;;;2.58;;
30096;SDS011;16915;51.466;3.610;2022-11-24T17:11:33;17.17;;;2.63;;
30096;SDS011;16915;51.466;3.610;2022-11-24T17:13:59;15.85;;;2.13;;